Eurika — LYRZ — position and weather

sailwx.info

Track history (hours):
 
Tides and Currents Weather Stations Pressure Air Temp Water Temp Dewpoint Dewpoint Depression Visibility Wind Speed Wind Dir Waves Ship Positions

Eurika

Last reported at 2014-Jul-19 13:30 UTC. Time now 2014-Jul-26 07:09 UTC.
Position N 43°27' E 004°45'.

Length 79 m; draft 3.2 m.

MMSI: 277335000.

Date/timePositionNaut miles runAvg speedWind from/ knotsBaromVisibWave heightAir tempDewpointWater temp
2014-Jul-19 13:30N 43°27' E 004°45'5 3.4
2014-Jul-19 12:05N 43°23' E 004°49'3 5.8
2014-Jul-19 11:33N 43°24' E 004°53'5 5.0
2014-Jul-19 10:33N 43°21' E 004°59'6 6.2
2014-Jul-19 09:33N 43°15' E 005°01'17 7.4
2014-Jul-19 07:16N 43°00' E 004°50'7 8.2
2014-Jul-19 06:27N 42°55' E 004°44'16 8.3
2014-Jul-19 04:33N 42°44' E 004°29'8 8.0
2014-Jul-19 03:33N 42°38' E 004°21'8 8.2
2014-Jul-19 02:33N 42°32' E 004°14'12 9.4
2014-Jul-19 01:20N 42°24' E 004°03'5 6.1
2014-Jul-19 00:32N 42°20' E 003°59'8 7.7
2014-Jul-18 23:32N 42°15' E 003°52'8 8.0
2014-Jul-18 22:33N 42°09' E 003°45'9 8.2
2014-Jul-18 21:26N 42°02' E 003°36'8 8.8
2014-Jul-18 20:33N 41°57' E 003°29'29 9.0
2014-Jul-18 17:20N 41°37' E 003°00'910.7
2014-Jul-18 16:32N 41°32' E 002°51'8 8.2
2014-Jul-18 15:32N 41°26' E 002°43'10 9.0
2014-Jul-18 14:28N 41°20' E 002°33'7 7.9
2014-Jul-18 13:32N 41°15' E 002°26'11 8.3
2014-Jul-18 12:12N 41°08' E 002°15'5 8.1
2014-Jul-18 11:33N 41°04' E 002°10'8 8.2
2014-Jul-18 10:33N 40°59' E 002°02'8 8.2
2014-Jul-18 09:33N 40°54' E 001°54'8 8.3
2014-Jul-18 08:33N 40°48' E 001°45'8 8.4
2014-Jul-18 07:33N 40°43' E 001°37'8 8.0
2014-Jul-18 06:34N 40°37' E 001°29'9 8.2
2014-Jul-18 05:28N 40°31' E 001°20'8 8.2
2014-Jul-18 04:30N 40°27' E 001°12'7 7.9
2014-Jul-18 03:33N 40°22' E 001°04'36 1.5
2014-Jul-17 03:08N 39°48' E 001°17'17 9.3
2014-Jul-17 01:21N 39°50' E 001°38'7 8.6
2014-Jul-17 00:30N 39°51' E 001°48'8 8.3
2014-Jul-16 23:33N 39°52' E 001°58'9 8.8
2014-Jul-16 22:33N 39°54' E 002°09'9 8.9
2014-Jul-16 21:33N 39°55' E 002°21'9 8.9
2014-Jul-16 20:33N 39°56' E 002°32'9 9.1
2014-Jul-16 19:33N 39°57' E 002°44'36 8.9
2014-Jul-16 15:30N 39°56' E 003°31'  
2014-Jul-11 17:33N 43°17' E 005°03'8 7.9
2014-Jul-11 16:33N 43°23' E 004°56'5 5.3
2014-Jul-11 15:31N 43°23' E 004°49'0 0.1
2014-Jul-11 14:30N 43°23' E 004°48'0 0.0
2014-Jul-11 13:06N 43°23' E 004°48'  
Track history (hours):
 
Tides and Currents Weather Stations Pressure Air Temp Water Temp Dewpoint Dewpoint Depression Visibility Wind Speed Wind Dir Waves Ship Positions

Eurika

Last reported at 2014-Jul-19 13:30 UTC. Time now 2014-Jul-26 07:09 UTC.
Position N 43°27' E 004°45'.

Length 79 m; draft 3.2 m.

MMSI: 277335000.

Date/timePositionNaut miles runAvg speedWind from/ knotsBaromVisibWave heightAir tempDewpointWater temp
2014-Jul-19 13:30N 43°27' E 004°45'5 3.4
2014-Jul-19 12:05N 43°23' E 004°49'3 5.8
2014-Jul-19 11:33N 43°24' E 004°53'5 5.0
2014-Jul-19 10:33N 43°21' E 004°59'6 6.2
2014-Jul-19 09:33N 43°15' E 005°01'17 7.4
2014-Jul-19 07:16N 43°00' E 004°50'7 8.2
2014-Jul-19 06:27N 42°55' E 004°44'16 8.3
2014-Jul-19 04:33N 42°44' E 004°29'8 8.0
2014-Jul-19 03:33N 42°38' E 004°21'8 8.2
2014-Jul-19 02:33N 42°32' E 004°14'12 9.4
2014-Jul-19 01:20N 42°24' E 004°03'5 6.1
2014-Jul-19 00:32N 42°20' E 003°59'8 7.7
2014-Jul-18 23:32N 42°15' E 003°52'8 8.0
2014-Jul-18 22:33N 42°09' E 003°45'9 8.2
2014-Jul-18 21:26N 42°02' E 003°36'8 8.8
2014-Jul-18 20:33N 41°57' E 003°29'29 9.0
2014-Jul-18 17:20N 41°37' E 003°00'910.7
2014-Jul-18 16:32N 41°32' E 002°51'8 8.2
2014-Jul-18 15:32N 41°26' E 002°43'10 9.0
2014-Jul-18 14:28N 41°20' E 002°33'7 7.9
2014-Jul-18 13:32N 41°15' E 002°26'11 8.3
2014-Jul-18 12:12N 41°08' E 002°15'5 8.1
2014-Jul-18 11:33N 41°04' E 002°10'8 8.2
2014-Jul-18 10:33N 40°59' E 002°02'8 8.2
2014-Jul-18 09:33N 40°54' E 001°54'8 8.3
2014-Jul-18 08:33N 40°48' E 001°45'8 8.4
2014-Jul-18 07:33N 40°43' E 001°37'8 8.0
2014-Jul-18 06:34N 40°37' E 001°29'9 8.2
2014-Jul-18 05:28N 40°31' E 001°20'8 8.2
2014-Jul-18 04:30N 40°27' E 001°12'7 7.9
2014-Jul-18 03:33N 40°22' E 001°04'36 1.5
2014-Jul-17 03:08N 39°48' E 001°17'17 9.3
2014-Jul-17 01:21N 39°50' E 001°38'7 8.6
2014-Jul-17 00:30N 39°51' E 001°48'8 8.3
2014-Jul-16 23:33N 39°52' E 001°58'9 8.8
2014-Jul-16 22:33N 39°54' E 002°09'9 8.9
2014-Jul-16 21:33N 39°55' E 002°21'9 8.9
2014-Jul-16 20:33N 39°56' E 002°32'9 9.1
2014-Jul-16 19:33N 39°57' E 002°44'36 8.9
2014-Jul-16 15:30N 39°56' E 003°31'  
2014-Jul-11 17:33N 43°17' E 005°03'8 7.9
2014-Jul-11 16:33N 43°23' E 004°56'5 5.3
2014-Jul-11 15:31N 43°23' E 004°49'0 0.1
2014-Jul-11 14:30N 43°23' E 004°48'0 0.0
2014-Jul-11 13:06N 43°23' E 004°48'  

Dump ship's entire track history